Back to Top

Language: 

My Weather Underground Personal Weather Station Historical Data with Graphs...

Delerius Weather Station Historical Data
Daily Summary for November 19, 2017 Units:  Metric    English   Both
« Previous Day
Next Day »
Daily Weekly Monthly Yearly Custom
  High: Low: Average:
Temperature: 7.8 °C 0.1 °C 4.2 °C
Dew Point: 3.6 °C -2.2 °C 0.4 °C
Humidity: 86 % 60 % 77 %
Wind Speed: 14.5 km/h 0 km/h 5.1 km/h
Wind Gust: 20.9 km/h - -
Wind:- - West
Pressure: 1023.2 hPa 1017.5 hPa -
Precipitation: 0 mm    
Historical Graphs
 
 
Tabular Data for November 19, 2017
Time Temperature Dew Point Pressure Wind Wind Speed Wind Gust Humidity Rainfall Rate (Hourly) solar Conditions
00:04 3.2 °C 0.3 °C 1020.5 hPa WNW 8 km/h 11.3 km/h 81 % 0 mm 0 W/m2
00:09 3.2 °C 0.3 °C 1020.5 hPa WNW 9.7 km/h 12.9 km/h 81 % 0 mm 0 W/m2
00:14 3.1 °C 0.2 °C 1020.9 hPa WNW 8 km/h 11.3 km/h 81 % 0 mm 0 W/m2
00:19 3 °C 0.1 °C 1020.5 hPa WNW 9.7 km/h 11.3 km/h 81 % 0 mm 0 W/m2
00:24 2.9 °C -0.1 °C 1020.5 hPa WNW 8 km/h 11.3 km/h 81 % 0 mm 0 W/m2
00:29 2.8 °C -0.1 °C 1020.9 hPa WNW 9.7 km/h 12.9 km/h 81 % 0 mm 0 W/m2
00:34 2.7 °C -0.2 °C 1020.9 hPa WNW 9.7 km/h 14.5 km/h 81 % 0 mm 0 W/m2
00:39 2.8 °C -0.1 °C 1020.9 hPa WNW 11.3 km/h 20.9 km/h 81 % 0 mm 0 W/m2
00:44 2.8 °C -0.1 °C 1020.9 hPa WNW 11.3 km/h 17.7 km/h 81 % 0 mm 0 W/m2
00:49 2.9 °C -0.2 °C 1020.9 hPa WNW 11.3 km/h 16.1 km/h 80 % 0 mm 0 W/m2
00:54 2.9 °C -0.2 °C 1020.9 hPa WNW 11.3 km/h 17.7 km/h 80 % 0 mm 0 W/m2
00:59 3 °C -0.3 °C 1020.9 hPa WNW 12.9 km/h 19.3 km/h 79 % 0 mm 0 W/m2
01:04 3 °C -0.3 °C 1020.9 hPa WNW 12.9 km/h 17.7 km/h 79 % 0 mm 0 W/m2
01:09 3 °C -0.3 °C 1020.9 hPa WNW 12.9 km/h 17.7 km/h 79 % 0 mm 0 W/m2
01:14 3 °C -0.3 °C 1020.9 hPa WNW 12.9 km/h 17.7 km/h 79 % 0 mm 0 W/m2
01:19 3 °C -0.3 °C 1020.9 hPa WNW 14.5 km/h 20.9 km/h 79 % 0 mm 0 W/m2
01:24 3 °C -0.3 °C 1021.2 hPa WNW 11.3 km/h 19.3 km/h 79 % 0 mm 0 W/m2
01:29 2.9 °C -0.4 °C 1021.2 hPa WNW 12.9 km/h 17.7 km/h 79 % 0 mm 0 W/m2
01:34 3 °C -0.3 °C 1021.2 hPa NW 12.9 km/h 19.3 km/h 79 % 0 mm 0 W/m2
01:39 3 °C -0.3 °C 1021.2 hPa WNW 14.5 km/h 20.9 km/h 79 % 0 mm 0 W/m2
01:44 2.9 °C -0.4 °C 1021.2 hPa WNW 11.3 km/h 17.7 km/h 79 % 0 mm 0 W/m2
01:49 2.9 °C -0.4 °C 1020.9 hPa WNW 12.9 km/h 17.7 km/h 79 % 0 mm 0 W/m2
01:50 2.9 °C -0.4 °C 1020.9 hPa WNW 12.9 km/h 16.1 km/h 79 % 0 mm 0 W/m2
01:55 2.9 °C -0.4 °C 1021.2 hPa WNW 12.9 km/h 17.7 km/h 79 % 0 mm 0 W/m2
02:00 2.9 °C -0.4 °C 1021.2 hPa NW 11.3 km/h 17.7 km/h 79 % 0 mm 0 W/m2
02:05 3 °C -0.3 °C 1021.2 hPa NW 11.3 km/h 19.3 km/h 79 % 0 mm 0 W/m2
02:10 2.9 °C -0.4 °C 1021.2 hPa WNW 11.3 km/h 19.3 km/h 79 % 0 mm 0 W/m2
02:15 2.9 °C -0.4 °C 1021.2 hPa WNW 11.3 km/h 17.7 km/h 79 % 0 mm 0 W/m2
02:20 2.9 °C -0.4 °C 1021.2 hPa WNW 9.7 km/h 12.9 km/h 79 % 0 mm 0 W/m2
02:25 2.9 °C -0.6 °C 1021.2 hPa WNW 9.7 km/h 12.9 km/h 78 % 0 mm 0 W/m2
02:30 2.8 °C -0.7 °C 1021.2 hPa WNW 8 km/h 14.5 km/h 78 % 0 mm 0 W/m2
02:35 2.7 °C -0.6 °C 1021.2 hPa WNW 8 km/h 12.9 km/h 79 % 0 mm 0 W/m2
02:40 2.6 °C -0.7 °C 1021.2 hPa WNW 8 km/h 9.7 km/h 79 % 0 mm 0 W/m2
02:45 2.4 °C -0.9 °C 1021.2 hPa WNW 9.7 km/h 12.9 km/h 79 % 0 mm 0 W/m2
02:46 2.4 °C -0.9 °C 1021.2 hPa WNW 9.7 km/h 12.9 km/h 79 % 0 mm 0 W/m2
02:51 2.3 °C -0.8 °C 1021.2 hPa WNW 9.7 km/h 14.5 km/h 80 % 0 mm 0 W/m2
02:56 2.2 °C -0.9 °C 1021.2 hPa WNW 9.7 km/h 12.9 km/h 80 % 0 mm 0 W/m2
03:01 2.2 °C -0.9 °C 1021.2 hPa WNW 8 km/h 11.3 km/h 80 % 0 mm 0 W/m2
03:06 2.1 °C -1 °C 1021.2 hPa West 6.4 km/h 9.7 km/h 80 % 0 mm 0 W/m2
03:11 2 °C -1.1 °C 1021.2 hPa West 3.2 km/h 9.7 km/h 80 % 0 mm 0 W/m2
03:17 1.8 °C -1.3 °C 1021.2 hPa West 3.2 km/h 8 km/h 80 % 0 mm 0 W/m2
03:22 1.7 °C -1.4 °C 1021.2 hPa West 6.4 km/h 8 km/h 80 % 0 mm 0 W/m2
03:25 1.6 °C -1.3 °C 1021.6 hPa West 4.8 km/h 8 km/h 81 % 0 mm 0 W/m2
03:26 1.6 °C -1.3 °C 1021.6 hPa WNW 6.4 km/h 9.7 km/h 81 % 0 mm 0 W/m2
03:29 1.5 °C -1.4 °C 1021.6 hPa WNW 6.4 km/h 9.7 km/h 81 % 0 mm 0 W/m2
03:31 1.4 °C -1.5 °C 1021.6 hPa WNW 6.4 km/h 9.7 km/h 81 % 0 mm 0 W/m2
03:36 1.4 °C -1.3 °C 1021.6 hPa WNW 6.4 km/h 9.7 km/h 82 % 0 mm 0 W/m2
03:41 1.3 °C -1.4 °C 1021.6 hPa WNW 6.4 km/h 9.7 km/h 82 % 0 mm 0 W/m2
03:46 1.3 °C -1.4 °C 1021.6 hPa WNW 6.4 km/h 9.7 km/h 82 % 0 mm 0 W/m2
03:51 1.2 °C -1.6 °C 1021.6 hPa WNW 8 km/h 11.3 km/h 82 % 0 mm 0 W/m2
03:56 1.2 °C -1.4 °C 1021.6 hPa WNW 6.4 km/h 9.7 km/h 83 % 0 mm 0 W/m2
04:01 1.2 °C -1.6 °C 1021.6 hPa WNW 3.2 km/h 8 km/h 82 % 0 mm 0 W/m2
04:06 1.1 °C -1.6 °C 1021.6 hPa WNW 4.8 km/h 8 km/h 82 % 0 mm 0 W/m2
04:11 1 °C -1.6 °C 1021.6 hPa WNW 6.4 km/h 8 km/h 83 % 0 mm 0 W/m2
04:16 0.9 °C -1.7 °C 1021.6 hPa West 6.4 km/h 8 km/h 83 % 0 mm 0 W/m2
04:21 0.8 °C -1.8 °C 1021.6 hPa West 4.8 km/h 8 km/h 83 % 0 mm 0 W/m2
04:26 0.8 °C -1.8 °C 1021.6 hPa WNW 4.8 km/h 6.4 km/h 83 % 0 mm 0 W/m2
04:31 0.7 °C -1.8 °C 1021.6 hPa WNW 3.2 km/h 8 km/h 83 % 0 mm 0 W/m2
04:51 0.6 °C -1.8 °C 1021.9 hPa West 4.8 km/h 8 km/h 84 % 0 mm 0 W/m2
04:56 0.5 °C -1.9 °C 1021.9 hPa West 4.8 km/h 8 km/h 84 % 0 mm 0 W/m2
05:01 0.4 °C -2 °C 1021.9 hPa WNW 6.4 km/h 8 km/h 84 % 0 mm 0 W/m2
05:11 0.6 °C -1.6 °C 1021.9 hPa WNW 8 km/h 11.3 km/h 85 % 0 mm 0 W/m2
05:16 0.8 °C -1.6 °C 1021.9 hPa West 4.8 km/h 8 km/h 84 % 0 mm 0 W/m2
05:21 0.7 °C -1.7 °C 1021.9 hPa West 3.2 km/h 8 km/h 84 % 0 mm 0 W/m2
05:31 0.6 °C -1.9 °C 1021.9 hPa West 3.2 km/h 6.4 km/h 83 % 0 mm 0 W/m2
05:36 0.5 °C -2.1 °C 1021.6 hPa West 3.2 km/h 4.8 km/h 83 % 0 mm 0 W/m2
05:41 0.4 °C -2.2 °C 1021.6 hPa West 4.8 km/h 8 km/h 83 % 0 mm 0 W/m2
05:56 0.2 °C -2 °C 1021.9 hPa WNW 6.4 km/h 8 km/h 85 % 0 mm 0 W/m2
06:01 0.1 °C -2.1 °C 1021.9 hPa WNW 4.8 km/h 8 km/h 85 % 0 mm 0 W/m2
06:07 0.1 °C -2.1 °C 1021.9 hPa WNW 6.4 km/h 8 km/h 85 % 0 mm 0 W/m2
06:12 0.1 °C -2.1 °C 1021.9 hPa WNW 4.8 km/h 8 km/h 85 % 0 mm 0 W/m2
06:17 0.1 °C -1.9 °C 1022.2 hPa WNW 6.4 km/h 9.7 km/h 86 % 0 mm 0 W/m2
06:22 0.1 °C -1.9 °C 1022.2 hPa WNW 3.2 km/h 6.4 km/h 86 % 0 mm 0 W/m2
06:27 0.1 °C -1.9 °C 1022.2 hPa WNW 6.4 km/h 9.7 km/h 86 % 0 mm 0 W/m2
06:32 0.2 °C -1.9 °C 1022.2 hPa WNW 8 km/h 11.3 km/h 86 % 0 mm 0 W/m2
06:37 0.3 °C -1.8 °C 1022.2 hPa WNW 6.4 km/h 9.7 km/h 86 % 0 mm 0 W/m2
06:42 0.4 °C -1.8 °C 1022.2 hPa WNW 4.8 km/h 8 km/h 85 % 0 mm 0 W/m2
06:47 0.4 °C -1.8 °C 1022.2 hPa WNW 8 km/h 12.9 km/h 85 % 0 mm 0 W/m2
06:57 0.8 °C -1.6 °C 1021.9 hPa West 4.8 km/h 9.7 km/h 84 % 0 mm 0 W/m2
07:02 0.8 °C -1.8 °C 1022.2 hPa WNW 1.6 km/h 4.8 km/h 83 % 0 mm 0 W/m2
07:07 0.8 °C -1.8 °C 1022.2 hPa WNW 3.2 km/h 8 km/h 83 % 0 mm 0 W/m2
07:12 0.6 °C -1.9 °C 1022.2 hPa WNW 4.8 km/h 6.4 km/h 83 % 0 mm 0 W/m2
07:17 0.6 °C -1.9 °C 1022.2 hPa WNW 4.8 km/h 6.4 km/h 83 % 0 mm 0 W/m2
07:27 0.5 °C -1.9 °C 1022.2 hPa Calm   1.6 km/h 84 % 0 mm 0 W/m2
07:32 0.4 °C -2 °C 1022.2 hPa Calm     84 % 0 mm 5 W/m2
07:37 0.3 °C -2.1 °C 1022.2 hPa WNW 3.2 km/h 6.4 km/h 84 % 0 mm 7 W/m2
07:47 0.3 °C -2.1 °C 1022.2 hPa WNW 6.4 km/h 8 km/h 84 % 0 mm 12 W/m2
07:52 0.3 °C -1.9 °C 1022.2 hPa WNW 8 km/h 9.7 km/h 85 % 0 mm 14 W/m2
07:57 0.4 °C -1.8 °C 1022.6 hPa WNW 6.4 km/h 9.7 km/h 85 % 0 mm 18 W/m2
08:04 0.4 °C -1.8 °C 1022.6 hPa WNW 8 km/h 9.7 km/h 85 % 0 mm 21 W/m2
08:09 0.5 °C -1.7 °C 1022.6 hPa WNW 6.4 km/h 9.7 km/h 85 % 0 mm 26 W/m2
08:14 0.6 °C -1.6 °C 1022.6 hPa WNW 6.4 km/h 8 km/h 85 % 0 mm 28 W/m2
08:19 0.7 °C -1.7 °C 1022.6 hPa WNW 3.2 km/h 8 km/h 84 % 0 mm 26 W/m2
08:24 0.8 °C -1.6 °C 1022.6 hPa WNW 1.6 km/h 6.4 km/h 84 % 0 mm 25 W/m2
08:34 0.9 °C -1.5 °C 1022.6 hPa WNW 4.8 km/h 8 km/h 84 % 0 mm 26 W/m2
08:39 1 °C -1.4 °C 1022.6 hPa NNW 1.6 km/h 6.4 km/h 84 % 0 mm 28 W/m2
08:44 1.1 °C -1.3 °C 1022.9 hPa NNW 1.6 km/h 6.4 km/h 84 % 0 mm 32 W/m2
08:49 1.2 °C -1.2 °C 1022.9 hPa NW 6.4 km/h 11.3 km/h 84 % 0 mm 35 W/m2
08:54 1.6 °C -0.8 °C 1022.9 hPa WNW 6.4 km/h 12.9 km/h 84 % 0 mm 37 W/m2
08:59 1.9 °C -0.7 °C 1022.9 hPa WNW 8 km/h 11.3 km/h 83 % 0 mm 40 W/m2
09:04 2.2 °C -0.6 °C 1022.9 hPa WNW 8 km/h 11.3 km/h 82 % 0 mm 107 W/m2
09:14 2.8 °C -0.1 °C 1022.9 hPa WNW 8 km/h 11.3 km/h 81 % 0 mm 162 W/m2
09:19 3.3 °C 0.2 °C 1022.9 hPa WNW 8 km/h 12.9 km/h 80 % 0 mm 174 W/m2
09:24 3.8 °C 0.3 °C 1022.9 hPa WNW 4.8 km/h 9.7 km/h 78 % 0 mm 179 W/m2
09:29 4.2 °C 0.3 °C 1023.2 hPa WNW 6.4 km/h 11.3 km/h 76 % 0 mm 165 W/m2
09:34 4.5 °C 0.4 °C 1022.9 hPa WNW 4.8 km/h 9.7 km/h 75 % 0 mm 204 W/m2
09:39 4.8 °C 0.6 °C 1023.2 hPa WNW 4.8 km/h 8 km/h 74 % 0 mm 193 W/m2
09:44 5.1 °C 0.7 °C 1023.2 hPa WNW 8 km/h 12.9 km/h 73 % 0 mm 223 W/m2
09:49 5.4 °C 0.8 °C 1023.2 hPa WNW 9.7 km/h 12.9 km/h 72 % 0 mm 260 W/m2
09:59 5.9 °C 0.7 °C 1022.9 hPa WNW 9.7 km/h 14.5 km/h 69 % 0 mm 218 W/m2
10:09 6.2 °C 0.7 °C 1023.2 hPa WNW 8 km/h 12.9 km/h 68 % 0 mm 241 W/m2
10:19 6.4 °C 0.7 °C 1023.2 hPa WNW 4.8 km/h 11.3 km/h 67 % 0 mm 239 W/m2
10:29 6.8 °C 0.7 °C 1023.2 hPa WNW 9.7 km/h 14.5 km/h 65 % 0 mm 250 W/m2
10:34 6.9 °C 0.8 °C 1023.2 hPa WNW 8 km/h 12.9 km/h 65 % 0 mm 255 W/m2
10:44 7.1 °C 0.5 °C 1023.2 hPa WNW 11.3 km/h 19.3 km/h 63 % 0 mm 248 W/m2
10:49 7.2 °C 0.6 °C 1023.2 hPa WNW 9.7 km/h 14.5 km/h 63 % 0 mm 260 W/m2
10:54 7.3 °C 0.7 °C 1023.2 hPa WNW 8 km/h 12.9 km/h 63 % 0 mm 264 W/m2
11:00 7.4 °C 0.8 °C 1023.2 hPa WNW 9.7 km/h 16.1 km/h 63 % 0 mm 281 W/m2
11:10 7.7 °C 0.9 °C 1023.2 hPa WNW 8 km/h 12.9 km/h 62 % 0 mm 246 W/m2
11:15 7.8 °C 0.9 °C 1023.2 hPa NW 6.4 km/h 11.3 km/h 62 % 0 mm 251 W/m2
11:25 7.7 °C 0.4 °C 1023.2 hPa NNW 6.4 km/h 11.3 km/h 60 % 0 mm 158 W/m2
11:30 7.6 °C 0.8 °C 1023.2 hPa NNW 3.2 km/h 8 km/h 62 % 0 mm 183 W/m2
11:40 7.7 °C 0.7 °C 1023.2 hPa NW 4.8 km/h 9.7 km/h 61 % 0 mm 155 W/m2
11:45 7.6 °C 0.6 °C 1023.2 hPa NW 4.8 km/h 9.7 km/h 61 % 0 mm 118 W/m2
11:50 7.6 °C 0.6 °C 1023.2 hPa WNW 4.8 km/h 9.7 km/h 61 % 0 mm 105 W/m2
11:55 7.4 °C 0.6 °C 1023.2 hPa WNW 8 km/h 11.3 km/h 62 % 0 mm 107 W/m2
12:00 7.4 °C 0.8 °C 1023.2 hPa WNW 1.6 km/h 4.8 km/h 63 % 0 mm 139 W/m2
12:05 7.3 °C 0.7 °C 1022.9 hPa NW 4.8 km/h 11.3 km/h 63 % 0 mm 155 W/m2
12:10 7.3 °C 0.7 °C 1022.9 hPa WNW 3.2 km/h 8 km/h 63 % 0 mm 202 W/m2
12:15 7.4 °C 0.8 °C 1022.9 hPa NW 4.8 km/h 9.7 km/h 63 % 0 mm 151 W/m2
12:29 7.4 °C 0.8 °C 1022.9 hPa NW 4.8 km/h 9.7 km/h 63 % 0 mm 135 W/m2
12:34 7.4 °C 0.6 °C 1022.9 hPa WNW 3.2 km/h 8 km/h 62 % 0 mm 137 W/m2
12:55 7.6 °C 1 °C 1022.9 hPa NW 4.8 km/h 8 km/h 63 % 0 mm 139 W/m2
13:00 7.6 °C 0.8 °C 1022.9 hPa NNW 4.8 km/h 9.7 km/h 62 % 0 mm 142 W/m2
13:10 7.5 °C 0.7 °C 1022.9 hPa NNW 1.6 km/h 6.4 km/h 62 % 0 mm 127 W/m2
13:15 7.6 °C 1 °C 1022.9 hPa NW 4.8 km/h 9.7 km/h 63 % 0 mm 121 W/m2
13:21 7.6 °C 1 °C 1022.9 hPa WNW 8 km/h 12.9 km/h 63 % 0 mm 125 W/m2
13:26 7.6 °C 1 °C 1022.9 hPa WNW 8 km/h 14.5 km/h 63 % 0 mm 109 W/m2
13:36 7.5 °C 0.9 °C 1022.9 hPa West 9.7 km/h 12.9 km/h 63 % 0 mm 116 W/m2
13:46 7.4 °C 1.1 °C 1022.9 hPa NW 3.2 km/h 8 km/h 64 % 0 mm 132 W/m2
13:51 7.5 °C 1.1 °C 1022.9 hPa WNW 4.8 km/h 8 km/h 64 % 0 mm 162 W/m2
13:56 7.6 °C 1 °C 1022.9 hPa WNW 6.4 km/h 9.7 km/h 63 % 0 mm 132 W/m2
14:06 7.6 °C 1.2 °C 1022.6 hPa WNW 1.6 km/h 6.4 km/h 64 % 0 mm 114 W/m2
14:11 7.6 °C 1.2 °C 1022.6 hPa WNW 3.2 km/h 9.7 km/h 64 % 0 mm 116 W/m2
14:21 7.6 °C 1.4 °C 1022.6 hPa WNW 3.2 km/h 8 km/h 65 % 0 mm 107 W/m2
14:26 7.5 °C 1.1 °C 1022.6 hPa WNW 6.4 km/h 11.3 km/h 64 % 0 mm 104 W/m2
14:31 7.4 °C 1.1 °C 1022.6 hPa WNW 6.4 km/h 11.3 km/h 64 % 0 mm 98 W/m2
14:36 7.4 °C 1.1 °C 1022.6 hPa WNW 4.8 km/h 8 km/h 64 % 0 mm 120 W/m2
14:41 7.4 °C 0.8 °C 1022.6 hPa West 4.8 km/h 9.7 km/h 63 % 0 mm 84 W/m2
14:46 7.4 °C 0.8 °C 1022.6 hPa WNW 6.4 km/h 9.7 km/h 63 % 0 mm 88 W/m2
14:56 7.4 °C 0.8 °C 1022.6 hPa West 4.8 km/h 8 km/h 63 % 0 mm 58 W/m2
15:05 7.2 °C 0.8 °C 1022.6 hPa West 3.2 km/h 8 km/h 64 % 0 mm 42 W/m2
15:10 7.2 °C 1.1 °C 1022.6 hPa West 3.2 km/h 6.4 km/h 65 % 0 mm 42 W/m2
15:15 7.1 °C 1.2 °C 1022.6 hPa West 1.6 km/h 6.4 km/h 66 % 0 mm 39 W/m2
15:20 7 °C 1.1 °C 1022.6 hPa West 6.4 km/h 9.7 km/h 66 % 0 mm 33 W/m2
15:35 6.7 °C 1 °C 1022.2 hPa West 1.6 km/h 6.4 km/h 67 % 0 mm 19 W/m2
15:45 6.6 °C 1.3 °C 1022.2 hPa West 6.4 km/h 11.3 km/h 69 % 0 mm 7 W/m2
15:50 6.4 °C 1.1 °C 1022.2 hPa West 6.4 km/h 11.3 km/h 69 % 0 mm 5 W/m2
15:55 6.4 °C 1.3 °C 1022.6 hPa West 3.2 km/h 8 km/h 70 % 0 mm 0 W/m2
16:05 6.2 °C 1.3 °C 1022.6 hPa WNW 3.2 km/h 8 km/h 71 % 0 mm 0 W/m2
16:25 5.9 °C 1.2 °C 1021.9 hPa WNW 1.6 km/h 4.8 km/h 72 % 0 mm 0 W/m2
16:30 5.9 °C 1.4 °C 1021.9 hPa WNW 3.2 km/h 8 km/h 73 % 0 mm 0 W/m2
16:35 5.8 °C 1.3 °C 1021.9 hPa WNW 3.2 km/h 8 km/h 73 % 0 mm 0 W/m2
16:40 5.8 °C 1.3 °C 1021.9 hPa WNW 1.6 km/h 3.2 km/h 73 % 0 mm 0 W/m2
16:45 5.7 °C 1.2 °C 1021.9 hPa Calm   3.2 km/h 73 % 0 mm 0 W/m2
16:50 5.7 °C 1.4 °C 1022.2 hPa WNW 1.6 km/h 4.8 km/h 74 % 0 mm 0 W/m2
16:55 5.7 °C 1.4 °C 1022.2 hPa WNW 1.6 km/h 4.8 km/h 74 % 0 mm 0 W/m2
17:00 5.6 °C 1.3 °C 1022.2 hPa WNW 1.6 km/h 3.2 km/h 74 % 0 mm 0 W/m2
17:05 5.6 °C 1.3 °C 1022.2 hPa Calm   1.6 km/h 74 % 0 mm 0 W/m2
17:10 5.5 °C 1.4 °C 1021.9 hPa Calm     75 % 0 mm 0 W/m2
17:15 5.5 °C 1.4 °C 1021.9 hPa Calm     75 % 0 mm 0 W/m2
17:20 5.4 °C 1.3 °C 1021.9 hPa Calm     75 % 0 mm 0 W/m2
17:25 5.4 °C 1.3 °C 1021.9 hPa Calm     75 % 0 mm 0 W/m2
17:30 5.3 °C 1.4 °C 1021.9 hPa Calm     76 % 0 mm 0 W/m2
17:35 5.3 °C 1.4 °C 1021.9 hPa Calm     76 % 0 mm 0 W/m2
17:40 5.3 °C 1.4 °C 1022.2 hPa Calm     76 % 0 mm 0 W/m2
17:50 5.2 °C 1.3 °C 1021.9 hPa Calm     76 % 0 mm 0 W/m2
17:56 5.2 °C 1.5 °C 1021.9 hPa Calm   1.6 km/h 77 % 0 mm 0 W/m2
18:06 5.2 °C 1.7 °C 1021.9 hPa Calm     78 % 0 mm 0 W/m2
18:11 5.2 °C 1.7 °C 1021.9 hPa Calm     78 % 0 mm 0 W/m2
18:22 5.2 °C 1.8 °C 1021.6 hPa Calm     79 % 0 mm 0 W/m2
18:32 5.2 °C 1.8 °C 1021.9 hPa Calm     79 % 0 mm 0 W/m2
18:37 5.2 °C 1.8 °C 1021.9 hPa Calm     79 % 0 mm 0 W/m2
18:42 5.2 °C 1.8 °C 1021.6 hPa Calm     79 % 0 mm 0 W/m2
18:47 5.2 °C 1.8 °C 1021.6 hPa Calm     79 % 0 mm 0 W/m2
18:52 5.2 °C 1.8 °C 1021.9 hPa Calm     79 % 0 mm 0 W/m2
18:57 5.2 °C 1.8 °C 1021.6 hPa Calm     79 % 0 mm 0 W/m2
19:02 5.2 °C 1.8 °C 1021.6 hPa Calm     79 % 0 mm 0 W/m2
19:07 5.2 °C 1.8 °C 1021.6 hPa Calm     79 % 0 mm 0 W/m2
19:12 5.2 °C 1.8 °C 1021.6 hPa Calm     79 % 0 mm 0 W/m2
19:17 5.3 °C 1.9 °C 1021.2 hPa Calm     79 % 0 mm 0 W/m2
19:22 5.3 °C 1.9 °C 1021.2 hPa Calm     79 % 0 mm 0 W/m2
19:25 5.3 °C 1.9 °C 1021.2 hPa Calm     79 % 0 mm 0 W/m2
19:32 5.3 °C 1.9 °C 1021.2 hPa Calm     79 % 0 mm 0 W/m2
19:37 5.3 °C 1.9 °C 1021.2 hPa Calm     79 % 0 mm 0 W/m2
19:42 5.2 °C 1.8 °C 1021.6 hPa Calm     79 % 0 mm 0 W/m2
19:47 5.2 °C 1.8 °C 1021.2 hPa Calm     79 % 0 mm 0 W/m2
19:52 5.1 °C 1.9 °C 1021.2 hPa Calm     80 % 0 mm 0 W/m2
19:57 5.1 °C 1.9 °C 1021.2 hPa Calm     80 % 0 mm 0 W/m2
20:02 5.1 °C 1.9 °C 1021.2 hPa Calm     80 % 0 mm 0 W/m2
20:12 5.2 °C 2.2 °C 1021.2 hPa Calm     81 % 0 mm 0 W/m2
20:17 5.2 °C 2.2 °C 1021.2 hPa Calm     81 % 0 mm 0 W/m2
20:22 5.2 °C 2.2 °C 1021.2 hPa Calm     81 % 0 mm 0 W/m2
20:27 5.3 °C 2.3 °C 1021.2 hPa Calm     81 % 0 mm 0 W/m2
20:32 5.4 °C 2.2 °C 1021.2 hPa WSW 3.2 km/h 9.7 km/h 80 % 0 mm 0 W/m2
20:47 5.7 °C 2.3 °C 1021.2 hPa Calm     79 % 0 mm 0 W/m2
20:52 5.7 °C 2.3 °C 1021.2 hPa Calm     79 % 0 mm 0 W/m2
20:57 5.7 °C 2.3 °C 1021.2 hPa Calm     79 % 0 mm 0 W/m2
21:07 5.7 °C 2.3 °C 1021.2 hPa Calm   3.2 km/h 79 % 0 mm 0 W/m2
21:12 5.7 °C 2.5 °C 1020.9 hPa Calm   1.6 km/h 80 % 0 mm 0 W/m2
21:32 5.8 °C 2.6 °C 1020.5 hPa SE 1.6 km/h 8 km/h 80 % 0 mm 0 W/m2
21:38 5.8 °C 2.6 °C 1020.5 hPa Calm   6.4 km/h 80 % 0 mm 0 W/m2
21:43 5.8 °C 2.6 °C 1020.2 hPa SE 1.6 km/h 8 km/h 80 % 0 mm 0 W/m2
21:48 5.9 °C 2.7 °C 1020.2 hPa SSE 4.8 km/h 11.3 km/h 80 % 0 mm 0 W/m2
21:53 5.9 °C 2.7 °C 1020.2 hPa SE 3.2 km/h 8 km/h 80 % 0 mm 0 W/m2
21:58 5.9 °C 2.7 °C 1019.9 hPa SSE 3.2 km/h 9.7 km/h 80 % 0 mm 0 W/m2
22:08 5.9 °C 2.7 °C 1019.9 hPa SSE 1.6 km/h 6.4 km/h 80 % 0 mm 0 W/m2
22:13 5.9 °C 2.9 °C 1019.9 hPa SSE 1.6 km/h 8 km/h 81 % 0 mm 0 W/m2
22:28 6 °C 3 °C 1019.5 hPa South 3.2 km/h 6.4 km/h 81 % 0 mm 0 W/m2
22:33 6 °C 3 °C 1019.5 hPa SSE 6.4 km/h 11.3 km/h 81 % 0 mm 0 W/m2
22:38 6 °C 3 °C 1019.5 hPa SSE 4.8 km/h 9.7 km/h 81 % 0 mm 0 W/m2
22:43 6.1 °C 3.1 °C 1019.5 hPa SSE 6.4 km/h 9.7 km/h 81 % 0 mm 0 W/m2
22:48 6.1 °C 3.3 °C 1019.2 hPa SSE 4.8 km/h 11.3 km/h 82 % 0 mm 0 W/m2
22:53 6.1 °C 3.3 °C 1019.2 hPa SSE 6.4 km/h 11.3 km/h 82 % 0 mm 0 W/m2
22:58 6.2 °C 3.5 °C 1019.2 hPa SSW 4.8 km/h 11.3 km/h 83 % 0 mm 0 W/m2
23:03 6.3 °C 3.6 °C 1018.8 hPa South 4.8 km/h 8 km/h 83 % 0 mm 0 W/m2
23:13 6.3 °C 3.4 °C 1018.5 hPa ESE 6.4 km/h 8 km/h 82 % 0 mm 0 W/m2
23:18 6.3 °C 3.4 °C 1018.5 hPa ESE 8 km/h 11.3 km/h 82 % 0 mm 0 W/m2
23:28 6.2 °C 3.3 °C 1018.2 hPa ESE 4.8 km/h 11.3 km/h 82 % 0 mm 0 W/m2
23:33 6.1 °C 3.3 °C 1018.2 hPa SE 4.8 km/h 9.7 km/h 82 % 0 mm 0 W/m2
23:38 6.1 °C 3.3 °C 1017.8 hPa ESE 3.2 km/h 6.4 km/h 82 % 0 mm 0 W/m2
23:44 6 °C 3.2 °C 1017.8 hPa ESE 3.2 km/h 6.4 km/h 82 % 0 mm 0 W/m2
23:59 5.9 °C 3.4 °C 1017.5 hPa ESE 4.8 km/h 11.3 km/h 84 % 0 mm 0 W/m2
Delerius-Weather
Compliments of Weather Underground - 2 mb

Data updates at regular intervals.